sensor_id;sensor_type;location;lat;lon;timestamp;P1;durP1;ratioP1;P2;durP2;ratioP2
4986;SDS011;12674;51.500;7.552;2023-05-10T00:01:00;2.83;;;2.50;;
4986;SDS011;12674;51.500;7.552;2023-05-10T00:03:04;3.20;;;2.00;;
4986;SDS011;12674;51.500;7.552;2023-05-10T00:05:07;2.77;;;2.00;;
4986;SDS011;12674;51.500;7.552;2023-05-10T00:07:10;3.80;;;1.87;;
4986;SDS011;12674;51.500;7.552;2023-05-10T00:09:13;2.20;;;2.00;;
4986;SDS011;12674;51.500;7.552;2023-05-10T00:11:16;2.83;;;2.10;;
4986;SDS011;12674;51.500;7.552;2023-05-10T00:13:23;2.13;;;2.03;;
4986;SDS011;12674;51.500;7.552;2023-05-10T00:15:26;2.22;;;2.05;;
4986;SDS011;12674;51.500;7.552;2023-05-10T00:17:31;2.10;;;2.00;;
4986;SDS011;12674;51.500;7.552;2023-05-10T00:19:36;2.83;;;2.10;;
4986;SDS011;12674;51.500;7.552;2023-05-10T00:21:39;4.00;;;1.90;;
4986;SDS011;12674;51.500;7.552;2023-05-10T00:23:42;2.83;;;2.43;;
4986;SDS011;12674;51.500;7.552;2023-05-10T00:25:45;2.10;;;1.90;;
4986;SDS011;12674;51.500;7.552;2023-05-10T00:27:48;2.30;;;2.10;;
4986;SDS011;12674;51.500;7.552;2023-05-10T00:29:51;2.63;;;2.20;;
4986;SDS011;12674;51.500;7.552;2023-05-10T00:31:54;2.20;;;2.10;;
4986;SDS011;12674;51.500;7.552;2023-05-10T00:33:57;2.97;;;2.60;;
4986;SDS011;12674;51.500;7.552;2023-05-10T00:36:02;2.60;;;2.40;;
4986;SDS011;12674;51.500;7.552;2023-05-10T00:38:08;4.27;;;3.50;;
4986;SDS011;12674;51.500;7.552;2023-05-10T00:40:12;2.90;;;2.70;;
4986;SDS011;12674;51.500;7.552;2023-05-10T00:42:20;4.63;;;3.10;;
4986;SDS011;12674;51.500;7.552;2023-05-10T00:44:26;3.87;;;3.47;;
4986;SDS011;12674;51.500;7.552;2023-05-10T00:46:28;6.90;;;2.77;;
4986;SDS011;12674;51.500;7.552;2023-05-10T00:48:33;3.40;;;3.10;;
4986;SDS011;12674;51.500;7.552;2023-05-10T00:50:36;3.53;;;3.23;;
4986;SDS011;12674;51.500;7.552;2023-05-10T00:52:42;8.07;;;3.70;;
4986;SDS011;12674;51.500;7.552;2023-05-10T00:54:45;4.60;;;3.63;;
4986;SDS011;12674;51.500;7.552;2023-05-10T00:56:49;4.87;;;3.70;;
4986;SDS011;12674;51.500;7.552;2023-05-10T00:58:52;4.90;;;4.40;;
4986;SDS011;12674;51.500;7.552;2023-05-10T01:00:55;5.40;;;4.10;;
4986;SDS011;12674;51.500;7.552;2023-05-10T01:03:00;4.97;;;3.80;;
4986;SDS011;12674;51.500;7.552;2023-05-10T01:05:03;4.80;;;3.97;;
4986;SDS011;12674;51.500;7.552;2023-05-10T01:07:07;4.93;;;4.10;;
4986;SDS011;12674;51.500;7.552;2023-05-10T01:09:12;5.10;;;4.40;;
4986;SDS011;12674;51.500;7.552;2023-05-10T01:11:15;5.20;;;4.70;;
4986;SDS011;12674;51.500;7.552;2023-05-10T01:13:19;7.82;;;4.97;;
4986;SDS011;12674;51.500;7.552;2023-05-10T01:15:29;5.30;;;4.70;;
4986;SDS011;12674;51.500;7.552;2023-05-10T01:17:33;7.67;;;5.20;;
4986;SDS011;12674;51.500;7.552;2023-05-10T01:19:36;5.22;;;4.72;;
4986;SDS011;12674;51.500;7.552;2023-05-10T01:21:42;5.95;;;5.32;;
4986;SDS011;12674;51.500;7.552;2023-05-10T01:26:32;6.35;;;5.75;;
4986;SDS011;12674;51.500;7.552;2023-05-10T01:29:02;6.80;;;5.40;;
4986;SDS011;12674;51.500;7.552;2023-05-10T01:31:18;6.53;;;5.60;;
4986;SDS011;12674;51.500;7.552;2023-05-10T01:33:27;6.00;;;5.40;;
4986;SDS011;12674;51.500;7.552;2023-05-10T01:35:34;7.73;;;5.97;;
4986;SDS011;12674;51.500;7.552;2023-05-10T01:37:41;7.20;;;5.97;;
4986;SDS011;12674;51.500;7.552;2023-05-10T01:39:45;9.40;;;6.40;;
4986;SDS011;12674;51.500;7.552;2023-05-10T01:41:52;8.38;;;7.00;;
4986;SDS011;12674;51.500;7.552;2023-05-10T01:44:00;11.13;;;6.80;;
4986;SDS011;12674;51.500;7.552;2023-05-10T01:46:07;10.07;;;6.90;;
4986;SDS011;12674;51.500;7.552;2023-05-10T01:48:15;9.48;;;7.22;;
4986;SDS011;12674;51.500;7.552;2023-05-10T01:50:22;7.50;;;6.20;;
4986;SDS011;12674;51.500;7.552;2023-05-10T01:52:30;9.32;;;7.25;;
4986;SDS011;12674;51.500;7.552;2023-05-10T01:54:35;9.40;;;7.77;;
4986;SDS011;12674;51.500;7.552;2023-05-10T01:56:42;9.33;;;7.70;;
4986;SDS011;12674;51.500;7.552;2023-05-10T01:58:46;9.73;;;7.65;;
4986;SDS011;12674;51.500;7.552;2023-05-10T02:00:51;11.80;;;8.93;;
4986;SDS011;12674;51.500;7.552;2023-05-10T02:02:55;17.48;;;8.93;;
4986;SDS011;12674;51.500;7.552;2023-05-10T02:04:58;11.60;;;8.67;;
4986;SDS011;12674;51.500;7.552;2023-05-10T02:07:03;12.50;;;9.00;;
4986;SDS011;12674;51.500;7.552;2023-05-10T02:09:06;12.30;;;9.20;;
4986;SDS011;12674;51.500;7.552;2023-05-10T02:11:10;9.90;;;7.80;;
4986;SDS011;12674;51.500;7.552;2023-05-10T02:13:17;13.65;;;8.68;;
4986;SDS011;12674;51.500;7.552;2023-05-10T02:15:22;12.70;;;9.68;;
4986;SDS011;12674;51.500;7.552;2023-05-10T02:17:26;10.45;;;8.07;;
4986;SDS011;12674;51.500;7.552;2023-05-10T02:19:30;8.93;;;7.30;;
4986;SDS011;12674;51.500;7.552;2023-05-10T02:21:34;8.87;;;7.47;;
4986;SDS011;12674;51.500;7.552;2023-05-10T02:23:39;8.57;;;7.33;;
4986;SDS011;12674;51.500;7.552;2023-05-10T02:25:42;9.95;;;7.85;;
4986;SDS011;12674;51.500;7.552;2023-05-10T02:27:46;8.90;;;6.87;;
4986;SDS011;12674;51.500;7.552;2023-05-10T02:29:49;9.68;;;7.43;;
4986;SDS011;12674;51.500;7.552;2023-05-10T02:31:53;9.20;;;6.67;;
4986;SDS011;12674;51.500;7.552;2023-05-10T02:33:57;6.85;;;6.10;;
4986;SDS011;12674;51.500;7.552;2023-05-10T02:36:01;10.90;;;6.50;;
4986;SDS011;12674;51.500;7.552;2023-05-10T02:38:05;9.00;;;5.90;;
4986;SDS011;12674;51.500;7.552;2023-05-10T02:40:11;7.68;;;6.30;;
4986;SDS011;12674;51.500;7.552;2023-05-10T02:42:16;7.28;;;6.50;;
4986;SDS011;12674;51.500;7.552;2023-05-10T02:44:20;7.13;;;5.45;;
4986;SDS011;12674;51.500;7.552;2023-05-10T02:46:24;5.45;;;4.88;;
4986;SDS011;12674;51.500;7.552;2023-05-10T02:48:30;6.65;;;4.78;;
4986;SDS011;12674;51.500;7.552;2023-05-10T02:50:33;5.53;;;4.35;;
4986;SDS011;12674;51.500;7.552;2023-05-10T02:52:39;5.10;;;4.60;;
4986;SDS011;12674;51.500;7.552;2023-05-10T02:54:43;5.55;;;4.70;;
4986;SDS011;12674;51.500;7.552;2023-05-10T02:56:50;5.95;;;4.40;;
4986;SDS011;12674;51.500;7.552;2023-05-10T02:58:55;5.53;;;4.17;;
4986;SDS011;12674;51.500;7.552;2023-05-10T03:00:59;5.30;;;3.93;;
4986;SDS011;12674;51.500;7.552;2023-05-10T03:03:02;5.87;;;4.03;;
4986;SDS011;12674;51.500;7.552;2023-05-10T03:05:06;6.10;;;4.00;;
4986;SDS011;12674;51.500;7.552;2023-05-10T03:07:09;6.27;;;5.53;;
4986;SDS011;12674;51.500;7.552;2023-05-10T03:09:14;5.00;;;4.05;;
4986;SDS011;12674;51.500;7.552;2023-05-10T03:11:23;5.47;;;4.10;;
4986;SDS011;12674;51.500;7.552;2023-05-10T03:13:39;5.07;;;3.55;;
4986;SDS011;12674;51.500;7.552;2023-05-10T03:15:47;5.27;;;3.30;;
4986;SDS011;12674;51.500;7.552;2023-05-10T03:18:00;4.97;;;3.38;;
4986;SDS011;12674;51.500;7.552;2023-05-10T03:20:06;3.95;;;3.55;;
4986;SDS011;12674;51.500;7.552;2023-05-10T03:22:13;5.93;;;2.92;;
4986;SDS011;12674;51.500;7.552;2023-05-10T03:24:23;3.55;;;2.95;;
4986;SDS011;12674;51.500;7.552;2023-05-10T03:26:32;3.50;;;2.60;;
4986;SDS011;12674;51.500;7.552;2023-05-10T03:28:44;3.77;;;3.33;;
4986;SDS011;12674;51.500;7.552;2023-05-10T03:30:48;3.17;;;2.60;;
4986;SDS011;12674;51.500;7.552;2023-05-10T03:32:52;2.90;;;2.70;;
4986;SDS011;12674;51.500;7.552;2023-05-10T03:34:55;4.90;;;2.90;;
4986;SDS011;12674;51.500;7.552;2023-05-10T03:37:00;4.70;;;3.17;;
4986;SDS011;12674;51.500;7.552;2023-05-10T03:39:05;3.47;;;3.20;;
4986;SDS011;12674;51.500;7.552;2023-05-10T03:41:08;6.20;;;4.03;;
4986;SDS011;12674;51.500;7.552;2023-05-10T03:43:11;3.70;;;3.40;;
4986;SDS011;12674;51.500;7.552;2023-05-10T03:45:16;5.88;;;4.03;;
4986;SDS011;12674;51.500;7.552;2023-05-10T03:47:19;7.10;;;4.05;;
4986;SDS011;12674;51.500;7.552;2023-05-10T03:49:22;4.40;;;3.70;;
4986;SDS011;12674;51.500;7.552;2023-05-10T03:51:25;3.23;;;2.73;;
4986;SDS011;12674;51.500;7.552;2023-05-10T03:53:29;4.93;;;3.60;;
4986;SDS011;12674;51.500;7.552;2023-05-10T03:55:32;3.97;;;3.40;;
4986;SDS011;12674;51.500;7.552;2023-05-10T03:57:37;6.77;;;3.70;;
4986;SDS011;12674;51.500;7.552;2023-05-10T03:59:41;9.07;;;4.43;;
4986;SDS011;12674;51.500;7.552;2023-05-10T04:01:45;5.10;;;4.07;;
4986;SDS011;12674;51.500;7.552;2023-05-10T04:03:49;6.90;;;4.70;;
4986;SDS011;12674;51.500;7.552;2023-05-10T04:05:58;6.23;;;4.17;;
4986;SDS011;12674;51.500;7.552;2023-05-10T04:08:02;8.40;;;4.43;;
4986;SDS011;12674;51.500;7.552;2023-05-10T04:10:05;8.23;;;4.03;;
4986;SDS011;12674;51.500;7.552;2023-05-10T04:12:09;5.35;;;4.22;;
4986;SDS011;12674;51.500;7.552;2023-05-10T04:14:12;7.13;;;5.00;;
4986;SDS011;12674;51.500;7.552;2023-05-10T04:16:15;7.80;;;6.30;;
4986;SDS011;12674;51.500;7.552;2023-05-10T04:18:19;13.70;;;5.83;;
4986;SDS011;12674;51.500;7.552;2023-05-10T04:20:22;6.60;;;5.10;;
4986;SDS011;12674;51.500;7.552;2023-05-10T04:22:25;14.03;;;5.93;;
4986;SDS011;12674;51.500;7.552;2023-05-10T04:24:29;10.80;;;7.43;;
4986;SDS011;12674;51.500;7.552;2023-05-10T04:26:32;13.90;;;8.60;;
4986;SDS011;12674;51.500;7.552;2023-05-10T04:28:35;12.77;;;8.80;;
4986;SDS011;12674;51.500;7.552;2023-05-10T04:30:38;14.57;;;10.30;;
4986;SDS011;12674;51.500;7.552;2023-05-10T04:32:41;22.20;;;10.87;;
4986;SDS011;12674;51.500;7.552;2023-05-10T04:34:46;20.53;;;12.27;;
4986;SDS011;12674;51.500;7.552;2023-05-10T04:36:49;20.63;;;11.93;;
4986;SDS011;12674;51.500;7.552;2023-05-10T04:38:52;25.53;;;12.27;;
4986;SDS011;12674;51.500;7.552;2023-05-10T04:41:03;21.67;;;12.63;;
4986;SDS011;12674;51.500;7.552;2023-05-10T04:43:06;20.90;;;12.90;;
4986;SDS011;12674;51.500;7.552;2023-05-10T04:45:09;22.63;;;12.20;;
4986;SDS011;12674;51.500;7.552;2023-05-10T04:47:13;20.53;;;12.63;;
4986;SDS011;12674;51.500;7.552;2023-05-10T04:49:17;24.13;;;14.17;;
4986;SDS011;12674;51.500;7.552;2023-05-10T04:51:22;25.30;;;14.97;;
4986;SDS011;12674;51.500;7.552;2023-05-10T04:53:24;26.57;;;14.30;;
4986;SDS011;12674;51.500;7.552;2023-05-10T04:55:28;21.90;;;13.10;;
4986;SDS011;12674;51.500;7.552;2023-05-10T04:57:31;20.47;;;12.60;;
4986;SDS011;12674;51.500;7.552;2023-05-10T04:59:35;24.50;;;13.93;;
4986;SDS011;12674;51.500;7.552;2023-05-10T05:01:38;19.20;;;12.20;;
4986;SDS011;12674;51.500;7.552;2023-05-10T05:03:42;20.80;;;12.33;;
4986;SDS011;12674;51.500;7.552;2023-05-10T05:05:45;19.40;;;13.07;;
4986;SDS011;12674;51.500;7.552;2023-05-10T05:07:49;27.33;;;12.90;;
4986;SDS011;12674;51.500;7.552;2023-05-10T05:09:55;21.60;;;12.83;;
4986;SDS011;12674;51.500;7.552;2023-05-10T05:11:58;22.90;;;14.07;;
4986;SDS011;12674;51.500;7.552;2023-05-10T05:14:01;24.17;;;14.17;;
4986;SDS011;12674;51.500;7.552;2023-05-10T05:16:05;27.30;;;14.87;;
4986;SDS011;12674;51.500;7.552;2023-05-10T05:18:08;25.33;;;15.00;;
4986;SDS011;12674;51.500;7.552;2023-05-10T05:20:11;22.47;;;14.47;;
4986;SDS011;12674;51.500;7.552;2023-05-10T05:22:15;24.83;;;15.40;;
4986;SDS011;12674;51.500;7.552;2023-05-10T05:24:21;26.17;;;15.67;;
4986;SDS011;12674;51.500;7.552;2023-05-10T05:26:24;26.87;;;16.87;;
4986;SDS011;12674;51.500;7.552;2023-05-10T05:28:27;25.37;;;16.60;;
4986;SDS011;12674;51.500;7.552;2023-05-10T05:30:34;31.03;;;16.53;;
4986;SDS011;12674;51.500;7.552;2023-05-10T05:32:37;25.17;;;16.63;;
4986;SDS011;12674;51.500;7.552;2023-05-10T05:34:40;31.77;;;17.43;;
4986;SDS011;12674;51.500;7.552;2023-05-10T05:36:43;34.00;;;17.60;;
4986;SDS011;12674;51.500;7.552;2023-05-10T05:38:45;33.10;;;19.20;;
4986;SDS011;12674;51.500;7.552;2023-05-10T05:40:50;37.20;;;20.70;;
4986;SDS011;12674;51.500;7.552;2023-05-10T05:42:53;37.67;;;20.37;;
4986;SDS011;12674;51.500;7.552;2023-05-10T05:44:56;35.10;;;20.40;;
4986;SDS011;12674;51.500;7.552;2023-05-10T05:46:59;33.40;;;20.53;;
4986;SDS011;12674;51.500;7.552;2023-05-10T05:49:03;33.77;;;21.40;;
4986;SDS011;12674;51.500;7.552;2023-05-10T05:51:06;33.60;;;21.43;;
4986;SDS011;12674;51.500;7.552;2023-05-10T05:53:09;45.33;;;22.93;;
4986;SDS011;12674;51.500;7.552;2023-05-10T05:55:12;40.57;;;23.80;;
4986;SDS011;12674;51.500;7.552;2023-05-10T05:57:17;35.90;;;22.47;;
4986;SDS011;12674;51.500;7.552;2023-05-10T05:59:20;43.27;;;24.23;;
4986;SDS011;12674;51.500;7.552;2023-05-10T06:01:23;45.57;;;23.23;;
4986;SDS011;12674;51.500;7.552;2023-05-10T06:03:26;38.30;;;24.37;;
4986;SDS011;12674;51.500;7.552;2023-05-10T06:05:29;48.00;;;27.10;;
4986;SDS011;12674;51.500;7.552;2023-05-10T06:07:32;43.40;;;25.67;;
4986;SDS011;12674;51.500;7.552;2023-05-10T06:09:35;43.25;;;25.20;;
4986;SDS011;12674;51.500;7.552;2023-05-10T06:11:38;44.13;;;26.00;;
4986;SDS011;12674;51.500;7.552;2023-05-10T06:13:42;44.73;;;26.70;;
4986;SDS011;12674;51.500;7.552;2023-05-10T06:15:45;49.22;;;28.00;;
4986;SDS011;12674;51.500;7.552;2023-05-10T06:17:49;42.95;;;25.95;;
4986;SDS011;12674;51.500;7.552;2023-05-10T06:19:52;45.55;;;27.65;;
4986;SDS011;12674;51.500;7.552;2023-05-10T06:21:55;46.38;;;26.73;;
4986;SDS011;12674;51.500;7.552;2023-05-10T06:23:58;43.75;;;26.15;;
4986;SDS011;12674;51.500;7.552;2023-05-10T06:26:01;48.08;;;27.52;;
4986;SDS011;12674;51.500;7.552;2023-05-10T06:28:04;46.42;;;28.02;;
4986;SDS011;12674;51.500;7.552;2023-05-10T06:30:09;51.47;;;28.48;;
4986;SDS011;12674;51.500;7.552;2023-05-10T06:32:14;45.17;;;26.17;;
4986;SDS011;12674;51.500;7.552;2023-05-10T06:34:17;46.65;;;28.17;;
4986;SDS011;12674;51.500;7.552;2023-05-10T06:36:20;40.95;;;27.63;;
4986;SDS011;12674;51.500;7.552;2023-05-10T06:38:24;39.15;;;26.23;;
4986;SDS011;12674;51.500;7.552;2023-05-10T06:40:27;40.42;;;26.45;;
4986;SDS011;12674;51.500;7.552;2023-05-10T06:42:30;41.97;;;26.83;;
4986;SDS011;12674;51.500;7.552;2023-05-10T06:44:33;48.65;;;29.02;;
4986;SDS011;12674;51.500;7.552;2023-05-10T06:46:38;45.13;;;27.90;;
4986;SDS011;12674;51.500;7.552;2023-05-10T06:48:41;41.45;;;28.38;;
4986;SDS011;12674;51.500;7.552;2023-05-10T06:50:44;44.63;;;28.38;;
4986;SDS011;12674;51.500;7.552;2023-05-10T06:52:47;46.83;;;28.60;;
4986;SDS011;12674;51.500;7.552;2023-05-10T06:54:53;41.42;;;27.52;;
4986;SDS011;12674;51.500;7.552;2023-05-10T06:56:56;53.05;;;28.33;;
4986;SDS011;12674;51.500;7.552;2023-05-10T06:58:59;46.20;;;27.75;;
4986;SDS011;12674;51.500;7.552;2023-05-10T07:01:02;52.35;;;28.75;;
4986;SDS011;12674;51.500;7.552;2023-05-10T07:03:08;51.42;;;29.40;;
4986;SDS011;12674;51.500;7.552;2023-05-10T07:05:11;54.88;;;30.30;;
4986;SDS011;12674;51.500;7.552;2023-05-10T07:07:14;51.13;;;30.90;;
4986;SDS011;12674;51.500;7.552;2023-05-10T07:09:17;46.17;;;30.60;;
4986;SDS011;12674;51.500;7.552;2023-05-10T07:11:20;50.92;;;30.63;;
4986;SDS011;12674;51.500;7.552;2023-05-10T07:13:23;50.50;;;31.10;;
4986;SDS011;12674;51.500;7.552;2023-05-10T07:15:27;47.00;;;27.92;;
4986;SDS011;12674;51.500;7.552;2023-05-10T07:17:30;48.88;;;30.27;;
4986;SDS011;12674;51.500;7.552;2023-05-10T07:19:36;45.13;;;29.15;;
4986;SDS011;12674;51.500;7.552;2023-05-10T07:21:39;42.17;;;27.50;;
4986;SDS011;12674;51.500;7.552;2023-05-10T07:23:44;51.72;;;30.63;;
4986;SDS011;12674;51.500;7.552;2023-05-10T07:25:47;52.17;;;27.50;;
4986;SDS011;12674;51.500;7.552;2023-05-10T07:27:51;39.95;;;26.77;;
4986;SDS011;12674;51.500;7.552;2023-05-10T07:29:54;39.92;;;27.92;;
4986;SDS011;12674;51.500;7.552;2023-05-10T07:31:57;43.47;;;28.20;;
4986;SDS011;12674;51.500;7.552;2023-05-10T07:34:01;36.67;;;25.48;;
4986;SDS011;12674;51.500;7.552;2023-05-10T07:36:05;39.65;;;27.52;;
4986;SDS011;12674;51.500;7.552;2023-05-10T07:38:08;37.78;;;27.30;;
4986;SDS011;12674;51.500;7.552;2023-05-10T07:40:12;36.40;;;25.77;;
4986;SDS011;12674;51.500;7.552;2023-05-10T07:42:15;36.08;;;25.88;;
4986;SDS011;12674;51.500;7.552;2023-05-10T07:44:18;38.13;;;25.85;;
4986;SDS011;12674;51.500;7.552;2023-05-10T07:46:21;35.47;;;25.83;;
4986;SDS011;12674;51.500;7.552;2023-05-10T07:48:25;32.95;;;23.73;;
4986;SDS011;12674;51.500;7.552;2023-05-10T07:50:28;42.45;;;24.40;;
4986;SDS011;12674;51.500;7.552;2023-05-10T07:52:33;29.02;;;22.52;;
4986;SDS011;12674;51.500;7.552;2023-05-10T07:54:36;28.10;;;22.40;;
4986;SDS011;12674;51.500;7.552;2023-05-10T07:56:39;25.75;;;20.38;;
4986;SDS011;12674;51.500;7.552;2023-05-10T07:58:46;29.65;;;21.10;;
4986;SDS011;12674;51.500;7.552;2023-05-10T08:00:49;35.85;;;21.25;;
4986;SDS011;12674;51.500;7.552;2023-05-10T08:02:53;25.15;;;20.25;;
4986;SDS011;12674;51.500;7.552;2023-05-10T08:04:56;24.85;;;17.73;;
4986;SDS011;12674;51.500;7.552;2023-05-10T08:06:59;22.98;;;16.65;;
4986;SDS011;12674;51.500;7.552;2023-05-10T08:09:04;26.85;;;17.73;;
4986;SDS011;12674;51.500;7.552;2023-05-10T08:11:07;22.85;;;17.95;;
4986;SDS011;12674;51.500;7.552;2023-05-10T08:13:10;29.17;;;16.17;;
4986;SDS011;12674;51.500;7.552;2023-05-10T08:15:13;24.48;;;16.58;;
4986;SDS011;12674;51.500;7.552;2023-05-10T08:17:17;28.50;;;16.80;;
4986;SDS011;12674;51.500;7.552;2023-05-10T08:19:23;23.25;;;16.40;;
4986;SDS011;12674;51.500;7.552;2023-05-10T08:21:26;29.83;;;17.35;;
4986;SDS011;12674;51.500;7.552;2023-05-10T08:23:31;24.83;;;17.58;;
4986;SDS011;12674;51.500;7.552;2023-05-10T08:25:35;25.27;;;18.10;;
4986;SDS011;12674;51.500;7.552;2023-05-10T08:27:38;25.50;;;17.23;;
4986;SDS011;12674;51.500;7.552;2023-05-10T08:29:42;24.65;;;17.52;;
4986;SDS011;12674;51.500;7.552;2023-05-10T08:31:51;24.38;;;16.77;;
4986;SDS011;12674;51.500;7.552;2023-05-10T08:33:54;29.85;;;17.95;;
4986;SDS011;12674;51.500;7.552;2023-05-10T08:35:57;28.05;;;17.80;;
4986;SDS011;12674;51.500;7.552;2023-05-10T08:38:00;25.45;;;18.83;;
4986;SDS011;12674;51.500;7.552;2023-05-10T08:40:04;24.80;;;17.83;;
4986;SDS011;12674;51.500;7.552;2023-05-10T08:42:10;28.48;;;19.40;;
4986;SDS011;12674;51.500;7.552;2023-05-10T08:44:13;29.00;;;19.25;;
4986;SDS011;12674;51.500;7.552;2023-05-10T08:46:19;25.55;;;19.38;;
4986;SDS011;12674;51.500;7.552;2023-05-10T08:48:24;24.90;;;19.55;;
4986;SDS011;12674;51.500;7.552;2023-05-10T08:50:27;30.63;;;20.38;;
4986;SDS011;12674;51.500;7.552;2023-05-10T08:52:30;30.55;;;19.83;;
4986;SDS011;12674;51.500;7.552;2023-05-10T08:54:36;29.02;;;19.15;;
4986;SDS011;12674;51.500;7.552;2023-05-10T08:56:40;34.80;;;22.17;;
4986;SDS011;12674;51.500;7.552;2023-05-10T08:58:45;31.80;;;16.65;;
4986;SDS011;12674;51.500;7.552;2023-05-10T09:00:49;25.02;;;14.43;;
4986;SDS011;12674;51.500;7.552;2023-05-10T09:02:53;16.63;;;13.57;;
4986;SDS011;12674;51.500;7.552;2023-05-10T09:04:57;16.83;;;12.90;;
4986;SDS011;12674;51.500;7.552;2023-05-10T09:07:01;21.65;;;12.48;;
4986;SDS011;12674;51.500;7.552;2023-05-10T09:09:05;16.33;;;12.32;;
4986;SDS011;12674;51.500;7.552;2023-05-10T09:11:08;14.70;;;11.23;;
4986;SDS011;12674;51.500;7.552;2023-05-10T09:13:12;14.88;;;10.77;;
4986;SDS011;12674;51.500;7.552;2023-05-10T09:15:18;16.55;;;9.43;;
4986;SDS011;12674;51.500;7.552;2023-05-10T09:17:21;15.48;;;10.25;;
4986;SDS011;12674;51.500;7.552;2023-05-10T09:19:27;18.52;;;10.18;;
4986;SDS011;12674;51.500;7.552;2023-05-10T09:21:33;17.35;;;9.82;;
4986;SDS011;12674;51.500;7.552;2023-05-10T09:23:38;16.80;;;11.35;;
4986;SDS011;12674;51.500;7.552;2023-05-10T09:25:41;17.10;;;11.73;;
4986;SDS011;12674;51.500;7.552;2023-05-10T09:27:44;27.20;;;13.73;;
4986;SDS011;12674;51.500;7.552;2023-05-10T09:29:48;19.88;;;14.45;;
4986;SDS011;12674;51.500;7.552;2023-05-10T09:31:57;20.67;;;14.52;;
4986;SDS011;12674;51.500;7.552;2023-05-10T09:34:00;23.35;;;16.15;;
4986;SDS011;12674;51.500;7.552;2023-05-10T09:36:06;27.05;;;15.00;;
4986;SDS011;12674;51.500;7.552;2023-05-10T09:38:11;19.85;;;14.60;;
4986;SDS011;12674;51.500;7.552;2023-05-10T09:40:15;23.75;;;14.95;;
4986;SDS011;12674;51.500;7.552;2023-05-10T09:42:20;22.63;;;15.30;;
4986;SDS011;12674;51.500;7.552;2023-05-10T09:44:23;21.95;;;14.40;;
4986;SDS011;12674;51.500;7.552;2023-05-10T09:46:28;21.67;;;14.52;;
4986;SDS011;12674;51.500;7.552;2023-05-10T09:48:32;22.88;;;16.05;;
4986;SDS011;12674;51.500;7.552;2023-05-10T09:50:35;22.33;;;14.40;;
4986;SDS011;12674;51.500;7.552;2023-05-10T09:52:46;26.73;;;14.60;;
4986;SDS011;12674;51.500;7.552;2023-05-10T09:54:52;20.50;;;14.50;;
4986;SDS011;12674;51.500;7.552;2023-05-10T09:56:55;26.92;;;15.73;;
4986;SDS011;12674;51.500;7.552;2023-05-10T09:59:01;20.02;;;15.07;;
4986;SDS011;12674;51.500;7.552;2023-05-10T10:01:05;24.75;;;16.40;;
4986;SDS011;12674;51.500;7.552;2023-05-10T10:03:14;18.50;;;13.90;;
4986;SDS011;12674;51.500;7.552;2023-05-10T10:05:19;18.00;;;13.52;;
4986;SDS011;12674;51.500;7.552;2023-05-10T10:07:22;17.23;;;12.85;;
4986;SDS011;12674;51.500;7.552;2023-05-10T10:09:28;17.80;;;10.88;;
4986;SDS011;12674;51.500;7.552;2023-05-10T10:11:31;17.42;;;11.35;;
4986;SDS011;12674;51.500;7.552;2023-05-10T10:13:34;14.93;;;11.20;;
4986;SDS011;12674;51.500;7.552;2023-05-10T10:15:37;14.52;;;10.40;;
4986;SDS011;12674;51.500;7.552;2023-05-10T10:17:41;11.70;;;9.18;;
4986;SDS011;12674;51.500;7.552;2023-05-10T10:19:46;15.57;;;10.23;;
4986;SDS011;12674;51.500;7.552;2023-05-10T10:21:52;11.73;;;9.48;;
4986;SDS011;12674;51.500;7.552;2023-05-10T10:23:55;11.88;;;8.23;;
4986;SDS011;12674;51.500;7.552;2023-05-10T10:25:58;10.75;;;9.15;;
4986;SDS011;12674;51.500;7.552;2023-05-10T10:28:08;9.15;;;8.05;;
4986;SDS011;12674;51.500;7.552;2023-05-10T10:30:23;11.27;;;6.88;;
4986;SDS011;12674;51.500;7.552;2023-05-10T10:32:30;8.80;;;6.78;;
4986;SDS011;12674;51.500;7.552;2023-05-10T10:34:40;14.73;;;7.63;;
4986;SDS011;12674;51.500;7.552;2023-05-10T10:36:44;12.00;;;7.32;;
4986;SDS011;12674;51.500;7.552;2023-05-10T10:38:56;10.43;;;7.35;;
4986;SDS011;12674;51.500;7.552;2023-05-10T10:41:10;10.57;;;7.00;;
4986;SDS011;12674;51.500;7.552;2023-05-10T10:43:23;12.18;;;8.02;;
4986;SDS011;12674;51.500;7.552;2023-05-10T10:45:28;10.85;;;7.15;;
4986;SDS011;12674;51.500;7.552;2023-05-10T10:47:32;14.50;;;6.60;;
4986;SDS011;12674;51.500;7.552;2023-05-10T10:49:42;18.77;;;7.03;;
4986;SDS011;12674;51.500;7.552;2023-05-10T10:54:21;8.93;;;6.18;;
4986;SDS011;12674;51.500;7.552;2023-05-10T10:56:31;7.90;;;6.32;;
4986;SDS011;12674;51.500;7.552;2023-05-10T10:58:38;10.82;;;6.95;;
4986;SDS011;12674;51.500;7.552;2023-05-10T11:00:41;11.75;;;7.25;;
4986;SDS011;12674;51.500;7.552;2023-05-10T11:02:47;14.02;;;7.25;;
4986;SDS011;12674;51.500;7.552;2023-05-10T11:04:53;13.88;;;7.18;;
4986;SDS011;12674;51.500;7.552;2023-05-10T11:09:22;10.38;;;7.07;;
4986;SDS011;12674;51.500;7.552;2023-05-10T11:11:27;17.88;;;9.02;;
4986;SDS011;12674;51.500;7.552;2023-05-10T11:13:32;17.52;;;8.10;;
4986;SDS011;12674;51.500;7.552;2023-05-10T11:15:38;14.25;;;8.60;;
4986;SDS011;12674;51.500;7.552;2023-05-10T11:17:42;21.02;;;12.75;;
4986;SDS011;12674;51.500;7.552;2023-05-10T11:22:12;24.20;;;14.85;;
4986;SDS011;12674;51.500;7.552;2023-05-10T11:24:16;22.80;;;13.80;;
4986;SDS011;12674;51.500;7.552;2023-05-10T11:26:22;23.00;;;12.80;;
4986;SDS011;12674;51.500;7.552;2023-05-10T11:28:26;21.33;;;13.00;;
4986;SDS011;12674;51.500;7.552;2023-05-10T11:30:30;19.58;;;12.38;;
4986;SDS011;12674;51.500;7.552;2023-05-10T11:32:34;24.98;;;12.48;;
4986;SDS011;12674;51.500;7.552;2023-05-10T11:34:39;17.38;;;10.73;;
4986;SDS011;12674;51.500;7.552;2023-05-10T11:36:42;16.50;;;10.73;;
4986;SDS011;12674;51.500;7.552;2023-05-10T11:38:45;14.20;;;9.70;;
4986;SDS011;12674;51.500;7.552;2023-05-10T11:40:50;14.77;;;9.90;;
4986;SDS011;12674;51.500;7.552;2023-05-10T11:42:56;12.40;;;9.23;;
4986;SDS011;12674;51.500;7.552;2023-05-10T11:45:00;18.25;;;10.73;;
4986;SDS011;12674;51.500;7.552;2023-05-10T11:47:03;17.40;;;10.23;;
4986;SDS011;12674;51.500;7.552;2023-05-10T11:49:07;16.35;;;10.60;;
4986;SDS011;12674;51.500;7.552;2023-05-10T11:51:10;23.40;;;10.50;;
4986;SDS011;12674;51.500;7.552;2023-05-10T11:53:14;14.70;;;9.05;;
4986;SDS011;12674;51.500;7.552;2023-05-10T11:55:17;12.68;;;8.02;;
4986;SDS011;12674;51.500;7.552;2023-05-10T11:57:25;13.50;;;10.13;;
4986;SDS011;12674;51.500;7.552;2023-05-10T11:59:32;14.98;;;10.60;;
4986;SDS011;12674;51.500;7.552;2023-05-10T12:01:36;15.10;;;10.43;;
4986;SDS011;12674;51.500;7.552;2023-05-10T12:03:39;16.60;;;9.35;;
4986;SDS011;12674;51.500;7.552;2023-05-10T12:05:43;13.45;;;11.07;;
4986;SDS011;12674;51.500;7.552;2023-05-10T12:07:46;17.83;;;10.38;;
4986;SDS011;12674;51.500;7.552;2023-05-10T12:10:08;15.30;;;10.32;;
4986;SDS011;12674;51.500;7.552;2023-05-10T12:12:15;14.82;;;11.23;;
4986;SDS011;12674;51.500;7.552;2023-05-10T12:14:18;17.90;;;11.15;;
4986;SDS011;12674;51.500;7.552;2023-05-10T12:16:25;19.48;;;10.77;;
4986;SDS011;12674;51.500;7.552;2023-05-10T12:18:29;27.73;;;11.40;;
4986;SDS011;12674;51.500;7.552;2023-05-10T12:20:34;19.33;;;11.20;;
4986;SDS011;12674;51.500;7.552;2023-05-10T12:22:38;15.02;;;10.77;;
4986;SDS011;12674;51.500;7.552;2023-05-10T12:24:41;20.88;;;10.85;;
4986;SDS011;12674;51.500;7.552;2023-05-10T12:26:45;17.20;;;10.60;;
4986;SDS011;12674;51.500;7.552;2023-05-10T12:28:49;16.80;;;10.80;;
4986;SDS011;12674;51.500;7.552;2023-05-10T12:30:53;14.13;;;9.98;;
4986;SDS011;12674;51.500;7.552;2023-05-10T12:33:06;14.10;;;9.80;;
4986;SDS011;12674;51.500;7.552;2023-05-10T12:35:11;16.80;;;10.73;;
4986;SDS011;12674;51.500;7.552;2023-05-10T12:37:15;20.80;;;11.30;;
4986;SDS011;12674;51.500;7.552;2023-05-10T12:39:18;16.85;;;10.55;;